Time;durP1;ratioP1;P1;durP2;ratioP2;P2;SDS_P1;SDS_P2;PMS_P1;PMS_P2;Temp;Humidity;BMP_temperature;BMP_pressure;BME280_temperature;BME280_humidity;BME280_pressure;Samples;Min_cycle;Max_cycle;Signal;HPM_P1;HPM_P2
2022/05/03 00:01:03;;;;;;;3.17;2.43;;;;;;;;;;5073151;28;20271;-74
2022/05/03 00:03:37;;;;;;;3.00;2.70;;;;;;;;;;5077167;28;20321;-74
2022/05/03 00:06:08;;;;;;;3.10;2.80;;;;;;;;;;5077563;28;20217;-74
2022/05/03 00:08:39;;;;;;;2.90;2.60;;;;;;;;;;5078636;28;20225;-74
2022/05/03 00:11:09;;;;;;;3.10;2.77;;;;;;;;;;5074323;28;20227;-74
2022/05/03 00:13:40;;;;;;;2.90;2.60;;;;;;;;;;5076519;28;20711;-74
2022/05/03 00:16:08;;;;;;;3.20;2.83;;;;;;;;;;5071987;28;20227;-74
2022/05/03 00:18:36;;;;;;;5.23;2.97;;;;;;;;;;5071134;28;20203;-74
2022/05/03 00:21:05;;;;;;;3.20;2.90;;;;;;;;;;5075676;28;20218;-74
2022/05/03 00:23:33;;;;;;;4.03;2.50;;;;;;;;;;5076077;28;20232;-74
2022/05/03 00:26:02;;;;;;;2.80;2.60;;;;;;;;;;5072702;28;20214;-74
2022/05/03 00:28:30;;;;;;;2.67;2.47;;;;;;;;;;5071910;28;20199;-74
2022/05/03 00:30:59;;;;;;;2.83;2.63;;;;;;;;;;5072921;28;20608;-74
2022/05/03 00:33:29;;;;;;;3.00;2.70;;;;;;;;;;5073534;28;20225;-74
2022/05/03 00:35:57;;;;;;;3.07;2.60;;;;;;;;;;5071166;28;20246;-74
2022/05/03 00:38:25;;;;;;;3.80;2.90;;;;;;;;;;5071403;28;20873;-74
2022/05/03 00:40:55;;;;;;;4.87;4.47;;;;;;;;;;5075811;28;20233;-74
2022/05/03 00:43:26;;;;;;;4.07;2.97;;;;;;;;;;5072269;28;20195;-74
2022/05/03 00:45:57;;;;;;;2.73;2.53;;;;;;;;;;5075112;28;20214;-74
2022/05/03 00:48:37;;;;;;;2.60;2.40;;;;;;;;;;5073162;28;20225;-74
2022/05/03 00:51:10;;;;;;;3.13;2.83;;;;;;;;;;5072193;28;20219;-74
2022/05/03 00:53:44;;;;;;;3.60;3.30;;;;;;;;;;5069919;28;20217;-74
2022/05/03 00:56:21;;;;;;;3.73;3.30;;;;;;;;;;5069556;28;20622;-74
2022/05/03 00:59:01;;;;;;;3.77;3.43;;;;;;;;;;5070301;28;20206;-74
2022/05/03 01:01:43;;;;;;;3.80;3.50;;;;;;;;;;5068366;28;20285;-74
2022/05/03 01:04:21;;;;;;;5.43;3.83;;;;;;;;;;5071117;28;20243;-75
2022/05/03 01:06:54;;;;;;;3.67;3.27;;;;;;;;;;5071234;28;20223;-74
2022/05/03 01:09:25;;;;;;;3.33;2.93;;;;;;;;;;5072481;28;20230;-74
2022/05/03 01:12:01;;;;;;;3.70;3.13;;;;;;;;;;5068226;28;20195;-73
2022/05/03 01:14:36;;;;;;;4.77;3.33;;;;;;;;;;5077931;28;20271;-74
2022/05/03 01:17:05;;;;;;;4.70;3.00;;;;;;;;;;5072060;28;20213;-74
2022/05/03 01:19:46;;;;;;;3.50;3.20;;;;;;;;;;5069945;28;20195;-74
2022/05/03 01:22:20;;;;;;;3.13;2.90;;;;;;;;;;5068013;28;20268;-74
2022/05/03 01:25:03;;;;;;;3.50;3.03;;;;;;;;;;5075885;28;20558;-74
2022/05/03 01:27:51;;;;;;;3.30;3.00;;;;;;;;;;5078709;28;20205;-74
2022/05/03 01:30:21;;;;;;;3.00;2.80;;;;;;;;;;5068557;28;20686;-74
2022/05/03 01:32:51;;;;;;;3.50;2.90;;;;;;;;;;5075365;28;20275;-74
2022/05/03 01:35:22;;;;;;;3.00;2.70;;;;;;;;;;5078623;28;20236;-74
2022/05/03 01:38:03;;;;;;;7.23;3.33;;;;;;;;;;5076081;28;20248;-74
2022/05/03 01:40:35;;;;;;;5.73;3.10;;;;;;;;;;5075503;28;20198;-74
2022/05/03 01:43:12;;;;;;;3.87;3.00;;;;;;;;;;5076024;28;20194;-74
2022/05/03 01:45:49;;;;;;;3.83;3.30;;;;;;;;;;5070688;28;20222;-74
2022/05/03 01:50:18;;;;;;;4.90;3.43;;;;;;;;;;5077965;28;20284;-74
2022/05/03 01:51:24;;;;;;;4.63;3.10;;;;;;;;;;5075138;28;20233;-74
2022/05/03 01:53:59;;;;;;;4.00;3.00;;;;;;;;;;5076144;28;20304;-74
2022/05/03 01:56:32;;;;;;;6.67;4.07;;;;;;;;;;5075291;28;20276;-74
2022/05/03 01:59:04;;;;;;;4.30;3.23;;;;;;;;;;5079777;28;20195;-74
2022/05/03 02:01:45;;;;;;;3.47;3.10;;;;;;;;;;5075899;28;20206;-74
2022/05/03 02:04:22;;;;;;;4.73;2.57;;;;;;;;;;5076052;28;20561;-74
2022/05/03 02:06:56;;;;;;;4.20;2.97;;;;;;;;;;5071159;28;20244;-74
2022/05/03 02:09:29;;;;;;;3.40;2.80;;;;;;;;;;5078126;28;20274;-74
2022/05/03 02:12:01;;;;;;;5.47;3.20;;;;;;;;;;5068999;28;20222;-74
2022/05/03 02:14:44;;;;;;;4.60;2.80;;;;;;;;;;5077118;28;20290;-74
2022/05/03 02:17:21;;;;;;;7.23;3.23;;;;;;;;;;5071735;28;20250;-74
2022/05/03 02:20:02;;;;;;;4.03;2.73;;;;;;;;;;5069708;28;20609;-74
2022/05/03 02:22:37;;;;;;;3.17;2.97;;;;;;;;;;5074603;28;20237;-74
2022/05/03 02:25:11;;;;;;;3.03;2.83;;;;;;;;;;5075278;28;20248;-74
2022/05/03 02:27:43;;;;;;;2.77;2.53;;;;;;;;;;5076762;28;20234;-74
2022/05/03 02:30:11;;;;;;;3.47;2.67;;;;;;;;;;5078401;28;20225;-74
2022/05/03 02:32:45;;;;;;;7.27;3.10;;;;;;;;;;5075866;28;20234;-74
2022/05/03 02:35:18;;;;;;;3.13;2.67;;;;;;;;;;5078560;28;20253;-74
2022/05/03 02:37:49;;;;;;;3.67;3.10;;;;;;;;;;5077420;28;20642;-74
2022/05/03 02:40:19;;;;;;;4.13;2.77;;;;;;;;;;5073528;28;20203;-74
2022/05/03 02:42:47;;;;;;;3.50;3.03;;;;;;;;;;5073710;28;20233;-74
2022/05/03 02:45:16;;;;;;;4.53;2.33;;;;;;;;;;5066077;28;20709;-74
2022/05/03 02:47:50;;;;;;;3.50;3.20;;;;;;;;;;5057984;28;20289;-74
2022/05/03 02:50:20;;;;;;;3.63;3.00;;;;;;;;;;5058360;28;20340;-74
2022/05/03 02:52:57;;;;;;;3.37;2.80;;;;;;;;;;5058298;28;20245;-74
2022/05/03 02:55:31;;;;;;;3.83;2.50;;;;;;;;;;5057875;28;20634;-74
2022/05/03 02:58:05;;;;;;;4.60;2.80;;;;;;;;;;5068943;28;20251;-74
2022/05/03 03:03:43;;;;;;;3.10;2.70;;;;;;;;;;5071795;28;20234;-76
2022/05/03 03:06:20;;;;;;;5.80;2.87;;;;;;;;;;5069745;28;20219;-73
2022/05/03 03:08:50;;;;;;;5.53;3.23;;;;;;;;;;5074562;28;20638;-75
2022/05/03 03:11:25;;;;;;;5.47;3.17;;;;;;;;;;5076542;28;20287;-74
2022/05/03 03:14:00;;;;;;;3.13;2.70;;;;;;;;;;5073852;28;20222;-76
2022/05/03 03:16:31;;;;;;;2.90;2.70;;;;;;;;;;5076958;28;20255;-74
2022/05/03 03:18:59;;;;;;;3.83;3.10;;;;;;;;;;5073670;28;20294;-73
2022/05/03 03:21:31;;;;;;;4.77;3.00;;;;;;;;;;5072051;28;20566;-75
2022/05/03 03:24:00;;;;;;;4.50;3.20;;;;;;;;;;5075943;28;20229;-75
2022/05/03 03:26:30;;;;;;;3.20;2.90;;;;;;;;;;5075818;28;20754;-74
2022/05/03 03:28:59;;;;;;;3.60;3.30;;;;;;;;;;5075461;28;20230;-73
2022/05/03 03:31:29;;;;;;;3.70;3.03;;;;;;;;;;5076738;28;20236;-73
2022/05/03 03:33:58;;;;;;;6.60;2.90;;;;;;;;;;5072256;28;20226;-75
2022/05/03 03:36:27;;;;;;;4.47;3.30;;;;;;;;;;5071655;28;20276;-75
2022/05/03 03:38:57;;;;;;;4.03;3.07;;;;;;;;;;5073475;28;20206;-75
2022/05/03 03:41:26;;;;;;;4.20;3.20;;;;;;;;;;5076471;28;20305;-75
2022/05/03 03:43:54;;;;;;;4.00;3.03;;;;;;;;;;5073201;28;20286;-75
2022/05/03 03:46:22;;;;;;;4.07;3.47;;;;;;;;;;5071980;28;20250;-75
2022/05/03 03:48:50;;;;;;;3.50;3.20;;;;;;;;;;5072045;28;20209;-75
2022/05/03 03:51:19;;;;;;;2.97;2.77;;;;;;;;;;5060790;28;20230;-75
2022/05/03 03:53:47;;;;;;;4.20;3.80;;;;;;;;;;5072303;28;20248;-75
2022/05/03 03:56:17;;;;;;;4.23;3.70;;;;;;;;;;5067607;28;20694;-74
2022/05/03 03:58:45;;;;;;;4.93;3.43;;;;;;;;;;5068769;28;20296;-74
2022/05/03 04:01:13;;;;;;;5.20;3.70;;;;;;;;;;5073370;28;20285;-74
2022/05/03 04:03:42;;;;;;;6.43;3.30;;;;;;;;;;5070214;28;20231;-73
2022/05/03 04:06:10;;;;;;;4.40;3.73;;;;;;;;;;5071747;28;20214;-73
2022/05/03 04:08:38;;;;;;;6.23;3.80;;;;;;;;;;5073595;28;20230;-73
2022/05/03 04:11:15;;;;;;;5.10;3.87;;;;;;;;;;5072584;28;20313;-73
2022/05/03 04:13:45;;;;;;;4.30;3.90;;;;;;;;;;5070121;28;20238;-73
2022/05/03 04:16:13;;;;;;;5.50;4.43;;;;;;;;;;5072150;28;20321;-72
2022/05/03 04:18:48;;;;;;;4.27;3.70;;;;;;;;;;5071876;28;20245;-73
2022/05/03 04:21:16;;;;;;;4.77;4.10;;;;;;;;;;5072029;28;20210;-73
2022/05/03 04:23:45;;;;;;;6.90;4.57;;;;;;;;;;5073348;28;20237;-73
2022/05/03 04:26:13;;;;;;;5.23;4.53;;;;;;;;;;5072919;28;20263;-73
2022/05/03 04:28:41;;;;;;;7.00;4.33;;;;;;;;;;5072398;28;20692;-73
2022/05/03 04:31:11;;;;;;;5.87;4.40;;;;;;;;;;5072683;28;20249;-73
2022/05/03 04:33:39;;;;;;;6.73;3.83;;;;;;;;;;5075998;28;20201;-73
2022/05/03 04:36:07;;;;;;;4.90;3.73;;;;;;;;;;5072279;28;20227;-73
2022/05/03 04:38:35;;;;;;;5.63;4.10;;;;;;;;;;5072998;28;20662;-73
2022/05/03 04:41:04;;;;;;;4.23;3.67;;;;;;;;;;5073502;28;20225;-74
2022/05/03 04:43:31;;;;;;;6.00;4.30;;;;;;;;;;5072611;28;20688;-72
2022/05/03 04:46:00;;;;;;;7.57;3.70;;;;;;;;;;5070970;28;20301;-72
2022/05/03 04:48:29;;;;;;;7.43;4.20;;;;;;;;;;5074815;28;20249;-71
2022/05/03 04:50:57;;;;;;;6.97;4.10;;;;;;;;;;5076756;28;20233;-72
2022/05/03 04:53:25;;;;;;;6.70;5.07;;;;;;;;;;5066375;28;20238;-72
2022/05/03 04:55:53;;;;;;;5.27;4.33;;;;;;;;;;5076157;28;20291;-73
2022/05/03 04:58:21;;;;;;;6.80;4.83;;;;;;;;;;5076084;28;20237;-72
2022/05/03 05:00:49;;;;;;;8.63;4.23;;;;;;;;;;5079471;28;20202;-73
2022/05/03 05:03:18;;;;;;;5.83;4.53;;;;;;;;;;5078170;28;20728;-72
2022/05/03 05:05:47;;;;;;;5.93;3.93;;;;;;;;;;5075210;28;20296;-73
2022/05/03 05:08:15;;;;;;;6.40;4.30;;;;;;;;;;5076612;28;20199;-72
2022/05/03 05:10:47;;;;;;;6.97;4.00;;;;;;;;;;5075145;28;20256;-72
2022/05/03 05:13:15;;;;;;;7.40;4.03;;;;;;;;;;5079333;28;20301;-72
2022/05/03 05:15:43;;;;;;;7.23;4.57;;;;;;;;;;5066524;28;20766;-73
2022/05/03 05:18:13;;;;;;;6.87;4.40;;;;;;;;;;5075029;28;20209;-72
2022/05/03 05:20:41;;;;;;;7.40;4.90;;;;;;;;;;5075355;28;20719;-72
2022/05/03 05:23:10;;;;;;;5.07;4.27;;;;;;;;;;5078839;28;20195;-72
2022/05/03 05:25:48;;;;;;;6.53;4.83;;;;;;;;;;5072977;28;20224;-72
2022/05/03 05:28:17;;;;;;;10.43;5.03;;;;;;;;;;5073993;28;20693;-72
2022/05/03 05:30:45;;;;;;;5.30;4.30;;;;;;;;;;5075876;28;20292;-72
2022/05/03 05:33:13;;;;;;;4.57;4.07;;;;;;;;;;5070388;28;20665;-73
2022/05/03 05:35:46;;;;;;;7.83;4.80;;;;;;;;;;5075300;28;20230;-73
2022/05/03 05:38:17;;;;;;;5.33;4.83;;;;;;;;;;5073770;28;20226;-73
2022/05/03 05:40:46;;;;;;;5.43;3.93;;;;;;;;;;5075511;28;20665;-71
2022/05/03 05:43:14;;;;;;;8.43;4.87;;;;;;;;;;5078376;28;20202;-72
2022/05/03 05:45:42;;;;;;;4.93;4.43;;;;;;;;;;5078646;28;20237;-72
2022/05/03 05:48:11;;;;;;;9.90;4.60;;;;;;;;;;5074636;28;20206;-72
2022/05/03 05:50:39;;;;;;;10.07;5.00;;;;;;;;;;5075414;28;20240;-71
2022/05/03 05:55:54;;;;;;;7.63;5.07;;;;;;;;;;5073114;28;20257;-71
2022/05/03 05:58:22;;;;;;;7.00;4.90;;;;;;;;;;5075059;28;20211;-71
2022/05/03 06:00:50;;;;;;;7.70;4.17;;;;;;;;;;5077246;28;20201;-72
2022/05/03 06:03:20;;;;;;;5.80;4.27;;;;;;;;;;5074059;28;20230;-72
2022/05/03 06:05:48;;;;;;;5.93;4.33;;;;;;;;;;5074884;28;20657;-72
2022/05/03 06:08:16;;;;;;;9.20;4.83;;;;;;;;;;5078339;28;20281;-73
2022/05/03 06:10:44;;;;;;;5.70;4.50;;;;;;;;;;5077853;28;20229;-72
2022/05/03 06:13:15;;;;;;;9.90;4.67;;;;;;;;;;5060508;28;20253;-72
2022/05/03 06:15:43;;;;;;;6.00;5.13;;;;;;;;;;5071956;28;20305;-72
2022/05/03 06:18:13;;;;;;;6.77;4.87;;;;;;;;;;5068437;28;20571;-72
2022/05/03 06:20:41;;;;;;;5.03;4.33;;;;;;;;;;5074734;28;20230;-72
2022/05/03 06:23:13;;;;;;;5.40;4.83;;;;;;;;;;5077298;28;20674;-71
2022/05/03 06:25:41;;;;;;;6.57;5.37;;;;;;;;;;5071613;28;20246;-72
2022/05/03 06:28:10;;;;;;;5.60;5.00;;;;;;;;;;5074725;28;20539;-72
2022/05/03 06:30:40;;;;;;;7.37;5.70;;;;;;;;;;5076997;28;20218;-72
2022/05/03 06:33:08;;;;;;;9.10;5.43;;;;;;;;;;5068789;28;20194;-71
2022/05/03 06:35:36;;;;;;;9.43;5.57;;;;;;;;;;5073798;28;20218;-71
2022/05/03 06:38:04;;;;;;;7.90;5.60;;;;;;;;;;5073492;28;20637;-72
2022/05/03 06:40:32;;;;;;;7.83;5.43;;;;;;;;;;5077316;28;20204;-73
2022/05/03 06:43:00;;;;;;;7.77;6.13;;;;;;;;;;5073917;28;20282;-72
2022/05/03 06:45:28;;;;;;;8.63;5.77;;;;;;;;;;5077537;28;20225;-71
2022/05/03 06:47:57;;;;;;;10.47;5.93;;;;;;;;;;5074234;28;20230;-71
2022/05/03 06:50:25;;;;;;;8.27;6.17;;;;;;;;;;5077375;28;20282;-72
2022/05/03 06:52:53;;;;;;;6.70;6.00;;;;;;;;;;5073882;28;20226;-72
2022/05/03 06:55:22;;;;;;;8.10;6.50;;;;;;;;;;5073558;28;20262;-71
2022/05/03 06:57:50;;;;;;;9.80;6.67;;;;;;;;;;5074341;28;20677;-72
2022/05/03 07:00:18;;;;;;;7.60;5.90;;;;;;;;;;5074686;28;20229;-72
2022/05/03 07:02:46;;;;;;;7.17;6.47;;;;;;;;;;5076768;28;20780;-71
2022/05/03 07:05:15;;;;;;;8.90;6.47;;;;;;;;;;5069770;28;20203;-72
2022/05/03 07:07:43;;;;;;;9.30;7.37;;;;;;;;;;5076224;28;20650;-72
2022/05/03 07:10:11;;;;;;;10.37;6.40;;;;;;;;;;5073950;28;20270;-72
2022/05/03 07:12:39;;;;;;;7.80;6.80;;;;;;;;;;5073974;28;20645;-72
2022/05/03 07:15:08;;;;;;;9.63;6.87;;;;;;;;;;5070543;28;20289;-71
2022/05/03 07:23:11;;;;;;;7.07;5.10;;;;;;;;;;5067173;28;20198;-71
2022/05/03 07:25:39;;;;;;;5.20;4.70;;;;;;;;;;5072735;28;20229;-72
2022/05/03 07:28:08;;;;;;;12.90;5.37;;;;;;;;;;5076835;28;20198;-71
2022/05/03 07:30:36;;;;;;;5.80;4.43;;;;;;;;;;5071512;28;20325;-72
2022/05/03 07:33:04;;;;;;;8.43;4.70;;;;;;;;;;5061487;28;20225;-72
2022/05/03 07:35:34;;;;;;;5.77;5.17;;;;;;;;;;5076772;28;20258;-72
2022/05/03 07:38:02;;;;;;;6.20;5.13;;;;;;;;;;5075820;28;20258;-72
2022/05/03 07:40:30;;;;;;;6.53;4.43;;;;;;;;;;5073511;28;20194;-71
2022/05/03 07:42:59;;;;;;;5.10;4.60;;;;;;;;;;5069985;28;20231;-71
2022/05/03 07:45:27;;;;;;;7.20;5.00;;;;;;;;;;5074300;28;20272;-71
2022/05/03 07:47:59;;;;;;;5.50;4.60;;;;;;;;;;5070611;28;20666;-71
2022/05/03 07:50:28;;;;;;;7.27;4.70;;;;;;;;;;5072896;28;20290;-72
2022/05/03 07:52:57;;;;;;;8.27;4.87;;;;;;;;;;5076300;28;20206;-72
2022/05/03 07:55:26;;;;;;;11.00;4.47;;;;;;;;;;5061494;28;20226;-72
2022/05/03 07:57:54;;;;;;;7.13;4.67;;;;;;;;;;5076247;28;20309;-73
2022/05/03 08:00:22;;;;;;;5.33;4.60;;;;;;;;;;5064434;28;20257;-73
2022/05/03 08:02:50;;;;;;;7.20;4.63;;;;;;;;;;5073109;28;20257;-73
2022/05/03 08:05:18;;;;;;;5.13;4.47;;;;;;;;;;5075589;28;20206;-73
2022/05/03 08:07:46;;;;;;;5.20;4.70;;;;;;;;;;5072601;28;20244;-72
2022/05/03 08:10:16;;;;;;;5.97;4.83;;;;;;;;;;5073868;28;20202;-73
2022/05/03 08:12:50;;;;;;;8.03;4.07;;;;;;;;;;5071936;28;20229;-73
2022/05/03 08:15:19;;;;;;;5.90;4.13;;;;;;;;;;5070718;28;20230;-72
2022/05/03 08:17:47;;;;;;;6.53;4.70;;;;;;;;;;5066353;28;20241;-73
2022/05/03 08:20:15;;;;;;;6.77;4.70;;;;;;;;;;5073221;28;20202;-73
2022/05/03 08:22:44;;;;;;;6.93;4.93;;;;;;;;;;5074906;28;20194;-72
2022/05/03 08:25:12;;;;;;;4.73;4.33;;;;;;;;;;5078934;28;20290;-72
2022/05/03 08:27:41;;;;;;;5.53;4.23;;;;;;;;;;5076998;28;20203;-72
2022/05/03 08:30:10;;;;;;;5.30;4.17;;;;;;;;;;5077860;28;20202;-72
2022/05/03 08:32:38;;;;;;;5.80;4.20;;;;;;;;;;5076447;28;20202;-72
2022/05/03 08:35:06;;;;;;;6.23;4.50;;;;;;;;;;5076036;28;20229;-72
2022/05/03 08:43:04;;;;;;;5.30;3.80;;;;;;;;;;5033376;28;20626;-73
2022/05/03 08:45:34;;;;;;;10.77;4.30;;;;;;;;;;5079190;28;20257;-73
2022/05/03 08:48:02;;;;;;;5.47;3.93;;;;;;;;;;5075767;28;20229;-73
2022/05/03 08:50:32;;;;;;;4.83;4.13;;;;;;;;;;5075640;28;20616;-73
2022/05/03 08:53:02;;;;;;;11.30;4.70;;;;;;;;;;5072355;28;20233;-73
2022/05/03 08:55:30;;;;;;;11.10;4.50;;;;;;;;;;5076349;28;20290;-72
2022/05/03 08:57:58;;;;;;;5.60;4.20;;;;;;;;;;5072609;28;20412;-73
2022/05/03 09:00:27;;;;;;;7.40;4.73;;;;;;;;;;5071486;28;20665;-72
2022/05/03 09:02:56;;;;;;;5.60;4.70;;;;;;;;;;5078264;28;20640;-73
2022/05/03 09:05:25;;;;;;;8.73;4.97;;;;;;;;;;5073482;28;20253;-73
2022/05/03 09:07:54;;;;;;;5.57;5.03;;;;;;;;;;5078424;28;20284;-72
2022/05/03 09:10:23;;;;;;;7.33;4.90;;;;;;;;;;5072501;28;20580;-73
2022/05/03 09:12:52;;;;;;;5.20;4.70;;;;;;;;;;5076896;28;20241;-72
2022/05/03 09:15:30;;;;;;;7.37;5.20;;;;;;;;;;5075985;28;20268;-71
2022/05/03 09:17:59;;;;;;;8.00;4.77;;;;;;;;;;5068824;28;20763;-72
2022/05/03 09:26:11;;;;;;;5.10;4.60;;;;;;;;;;5057856;28;20277;-72
2022/05/03 09:28:46;;;;;;;6.90;5.00;;;;;;;;;;5078765;28;20225;-72
2022/05/03 09:31:26;;;;;;;6.63;5.50;;;;;;;;;;5073091;28;20249;-72
2022/05/03 09:33:54;;;;;;;6.33;4.80;;;;;;;;;;5076702;28;20536;-72
2022/05/03 09:36:22;;;;;;;6.60;4.83;;;;;;;;;;5066963;28;20222;-72
2022/05/03 09:39:21;;;;;;;8.60;4.83;;;;;;;;;;5077620;28;20207;-72
2022/05/03 09:42:03;;;;;;;4.93;4.40;;;;;;;;;;5078299;28;20256;-72
2022/05/03 09:44:36;;;;;;;5.43;4.87;;;;;;;;;;5070909;28;20234;-72
2022/05/03 09:47:11;;;;;;;6.57;5.07;;;;;;;;;;5074817;28;20264;-72
2022/05/03 09:49:40;;;;;;;6.17;4.37;;;;;;;;;;5075440;28;20230;-72
2022/05/03 09:52:09;;;;;;;6.40;4.50;;;;;;;;;;5074928;28;20214;-72
2022/05/03 09:54:47;;;;;;;5.70;4.57;;;;;;;;;;5075252;28;20700;-73
2022/05/03 09:57:20;;;;;;;5.87;4.50;;;;;;;;;;5073772;28;20289;-72
2022/05/03 09:59:49;;;;;;;5.07;4.47;;;;;;;;;;5069932;28;20614;-72
2022/05/03 10:02:20;;;;;;;6.63;4.90;;;;;;;;;;5077311;28;20244;-72
2022/05/03 10:04:49;;;;;;;7.10;5.13;;;;;;;;;;5077049;28;20202;-73
2022/05/03 10:07:17;;;;;;;5.63;5.13;;;;;;;;;;5074642;28;20250;-73
2022/05/03 10:09:46;;;;;;;7.47;5.00;;;;;;;;;;5077717;28;20685;-73
2022/05/03 10:12:15;;;;;;;5.37;4.87;;;;;;;;;;5074990;28;20566;-73
2022/05/03 10:14:43;;;;;;;5.60;5.10;;;;;;;;;;5070064;28;20236;-73
2022/05/03 10:23:20;;;;;;;7.03;5.77;;;;;;;;;;5071231;28;20230;-72
2022/05/03 10:25:52;;;;;;;11.37;6.17;;;;;;;;;;5073249;28;20267;-72
2022/05/03 10:28:20;;;;;;;6.60;5.77;;;;;;;;;;5072133;28;20248;-72
2022/05/03 10:31:07;;;;;;;5.93;5.30;;;;;;;;;;5077239;28;20233;-72
2022/05/03 10:33:42;;;;;;;6.90;5.63;;;;;;;;;;5076761;28;20198;-73
2022/05/03 10:36:37;;;;;;;8.13;5.40;;;;;;;;;;5073898;28;20299;-73
2022/05/03 10:39:07;;;;;;;8.63;5.73;;;;;;;;;;5027246;28;20265;-73
2022/05/03 10:41:50;;;;;;;6.40;5.40;;;;;;;;;;5074055;28;20202;-73
2022/05/03 10:44:33;;;;;;;5.97;5.20;;;;;;;;;;5073441;28;20567;-73
2022/05/03 10:47:03;;;;;;;5.43;4.90;;;;;;;;;;5065826;28;20250;-73
2022/05/03 10:49:33;;;;;;;5.63;5.07;;;;;;;;;;5073681;28;20208;-72
2022/05/03 10:52:15;;;;;;;8.77;4.73;;;;;;;;;;5074261;28;20194;-72
2022/05/03 10:55:07;;;;;;;5.87;4.83;;;;;;;;;;5073547;28;20202;-73
2022/05/03 10:58:05;;;;;;;8.60;5.10;;;;;;;;;;5042769;28;20729;-73
2022/05/03 11:00:51;;;;;;;7.93;4.73;;;;;;;;;;5065544;28;20650;-72
2022/05/03 11:03:19;;;;;;;5.83;5.23;;;;;;;;;;5070810;28;20230;-73
2022/05/03 11:06:22;;;;;;;5.57;4.97;;;;;;;;;;5072866;28;20234;-72
2022/05/03 11:09:08;;;;;;;5.10;4.60;;;;;;;;;;5072035;28;20198;-72
2022/05/03 11:11:54;;;;;;;7.93;5.30;;;;;;;;;;5070047;28;20202;-72
2022/05/03 11:14:41;;;;;;;4.90;4.50;;;;;;;;;;5062853;28;20241;-72
2022/05/03 11:17:11;;;;;;;6.40;4.63;;;;;;;;;;5074345;28;20674;-72
2022/05/03 11:19:41;;;;;;;4.70;4.23;;;;;;;;;;5069965;28;20763;-72
2022/05/03 11:22:10;;;;;;;5.37;4.30;;;;;;;;;;5073632;28;20635;-72
2022/05/03 11:24:41;;;;;;;5.73;4.50;;;;;;;;;;5076759;28;20230;-73
2022/05/03 11:27:10;;;;;;;6.37;4.63;;;;;;;;;;5073550;28;20257;-73
2022/05/03 11:29:41;;;;;;;5.80;4.17;;;;;;;;;;5073643;28;20612;-72
2022/05/03 11:32:11;;;;;;;5.13;4.73;;;;;;;;;;5072817;28;20241;-72
2022/05/03 11:34:39;;;;;;;5.20;4.67;;;;;;;;;;5073561;28;20225;-72
2022/05/03 11:37:08;;;;;;;5.60;5.10;;;;;;;;;;5073458;28;20253;-72
2022/05/03 11:39:37;;;;;;;4.80;4.40;;;;;;;;;;5076241;28;20659;-73
2022/05/03 11:42:06;;;;;;;5.60;4.07;;;;;;;;;;5076300;28;20782;-72
2022/05/03 11:44:35;;;;;;;4.70;3.37;;;;;;;;;;5076480;28;20232;-72
2022/05/03 11:47:04;;;;;;;5.10;4.13;;;;;;;;;;5070413;28;20246;-73
2022/05/03 11:49:36;;;;;;;5.73;3.90;;;;;;;;;;5069644;28;20657;-73
2022/05/03 11:57:36;;;;;;;4.20;3.77;;;;;;;;;;5074578;28;20222;-72
2022/05/03 12:00:05;;;;;;;5.33;3.57;;;;;;;;;;5078017;28;20225;-72
2022/05/03 12:02:34;;;;;;;6.17;3.60;;;;;;;;;;5077225;28;20867;-72
2022/05/03 12:05:12;;;;;;;4.03;3.23;;;;;;;;;;5079900;28;20731;-72
2022/05/03 12:07:41;;;;;;;5.23;3.10;;;;;;;;;;5069081;28;20234;-72
2022/05/03 12:10:16;;;;;;;3.70;2.90;;;;;;;;;;5075275;28;20194;-73
2022/05/03 12:12:44;;;;;;;3.63;2.73;;;;;;;;;;5080487;28;20197;-73
2022/05/03 12:15:14;;;;;;;3.33;3.03;;;;;;;;;;5077124;28;20202;-73
2022/05/03 12:17:52;;;;;;;3.33;3.03;;;;;;;;;;5073616;28;20673;-73
2022/05/03 12:20:22;;;;;;;4.73;3.40;;;;;;;;;;5078444;28;20727;-73
2022/05/03 12:23:09;;;;;;;7.33;3.80;;;;;;;;;;5075464;28;20244;-72
2022/05/03 12:25:37;;;;;;;4.40;4.00;;;;;;;;;;5069715;28;20249;-72
2022/05/03 12:28:06;;;;;;;4.30;3.90;;;;;;;;;;5077331;28;20234;-73
2022/05/03 12:30:34;;;;;;;6.43;4.20;;;;;;;;;;5072425;28;20300;-72
2022/05/03 12:33:04;;;;;;;5.30;3.83;;;;;;;;;;5079385;28;20202;-72
2022/05/03 12:35:37;;;;;;;4.43;3.60;;;;;;;;;;5079864;28;20283;-73
2022/05/03 12:38:12;;;;;;;4.00;3.50;;;;;;;;;;5069084;28;20211;-73
2022/05/03 12:40:47;;;;;;;3.03;2.83;;;;;;;;;;5069321;28;20653;-73
2022/05/03 12:43:16;;;;;;;3.30;2.87;;;;;;;;;;5079015;28;20228;-73
2022/05/03 12:45:56;;;;;;;3.20;2.90;;;;;;;;;;5079660;28;20301;-73
2022/05/03 12:48:29;;;;;;;3.90;3.53;;;;;;;;;;5079208;28;20228;-72
2022/05/03 12:50:59;;;;;;;3.97;3.23;;;;;;;;;;5079541;28;20657;-73
2022/05/03 12:53:27;;;;;;;5.63;3.63;;;;;;;;;;5078376;28;20213;-72
2022/05/03 12:55:56;;;;;;;3.57;3.27;;;;;;;;;;5076876;28;20282;-72
2022/05/03 12:58:25;;;;;;;4.53;3.20;;;;;;;;;;5075611;28;20293;-73
2022/05/03 13:00:54;;;;;;;4.53;3.23;;;;;;;;;;5079574;28;20665;-72
2022/05/03 13:03:22;;;;;;;5.00;3.40;;;;;;;;;;5075895;28;20314;-72
2022/05/03 13:05:51;;;;;;;6.63;3.40;;;;;;;;;;5076500;28;20282;-72
2022/05/03 13:08:21;;;;;;;4.03;3.57;;;;;;;;;;5076592;28;20237;-73
2022/05/03 13:10:49;;;;;;;3.93;3.33;;;;;;;;;;5069515;28;20229;-72
2022/05/03 13:13:18;;;;;;;3.63;3.33;;;;;;;;;;5076313;28;20242;-73
2022/05/03 13:15:46;;;;;;;3.90;3.50;;;;;;;;;;5074655;28;20229;-72
2022/05/03 13:18:15;;;;;;;4.50;3.17;;;;;;;;;;5072539;28;20208;-73
2022/05/03 13:20:43;;;;;;;5.53;3.50;;;;;;;;;;5078293;28;20234;-73
2022/05/03 13:23:11;;;;;;;7.07;3.70;;;;;;;;;;5075965;28;20289;-74
2022/05/03 13:25:41;;;;;;;5.80;3.70;;;;;;;;;;5075281;28;20236;-73
2022/05/03 13:28:09;;;;;;;6.37;3.43;;;;;;;;;;5069659;28;20222;-73
2022/05/03 13:30:37;;;;;;;3.83;3.50;;;;;;;;;;5076798;28;20222;-73
2022/05/03 13:33:05;;;;;;;3.93;3.60;;;;;;;;;;5075739;28;20229;-72
2022/05/03 13:41:06;;;;;;;4.80;3.80;;;;;;;;;;5067223;28;20217;-73
2022/05/03 13:43:34;;;;;;;4.07;3.33;;;;;;;;;;5075177;28;20304;-72
2022/05/03 13:46:03;;;;;;;4.13;3.33;;;;;;;;;;5072424;28;20218;-73
2022/05/03 13:48:31;;;;;;;4.47;3.23;;;;;;;;;;5078450;28;20213;-72
2022/05/03 13:50:59;;;;;;;3.77;3.20;;;;;;;;;;5073346;28;20198;-73
2022/05/03 13:53:27;;;;;;;5.53;3.83;;;;;;;;;;5072587;28;20237;-72
2022/05/03 13:55:55;;;;;;;5.70;3.90;;;;;;;;;;5077754;28;20306;-72
2022/05/03 13:58:24;;;;;;;22.10;7.37;;;;;;;;;;5076266;28;20281;-72
2022/05/03 14:00:53;;;;;;;12.83;5.50;;;;;;;;;;5074143;28;20280;-71
2022/05/03 14:03:21;;;;;;;5.77;3.40;;;;;;;;;;5074885;28;20236;-72
2022/05/03 14:05:54;;;;;;;4.10;3.07;;;;;;;;;;5078198;28;20222;-72
2022/05/03 14:08:22;;;;;;;5.17;3.37;;;;;;;;;;5078130;28;20225;-71
2022/05/03 14:10:50;;;;;;;4.60;2.93;;;;;;;;;;5074014;28;20198;-72
2022/05/03 14:13:18;;;;;;;2.90;2.60;;;;;;;;;;5074830;28;20209;-71
2022/05/03 14:15:47;;;;;;;3.50;2.83;;;;;;;;;;5072408;28;20227;-71
2022/05/03 14:18:15;;;;;;;2.47;2.27;;;;;;;;;;5077625;28;20237;-73
2022/05/03 14:20:44;;;;;;;3.23;2.70;;;;;;;;;;5074513;28;20254;-73
2022/05/03 14:23:12;;;;;;;4.33;3.20;;;;;;;;;;5074301;28;20240;-71
2022/05/03 14:25:41;;;;;;;2.97;2.50;;;;;;;;;;5071569;28;20222;-72
2022/05/03 14:28:09;;;;;;;3.30;2.33;;;;;;;;;;5069888;28;20205;-73
2022/05/03 14:30:37;;;;;;;2.83;2.30;;;;;;;;;;5074653;28;20226;-71
2022/05/03 14:33:07;;;;;;;4.43;2.70;;;;;;;;;;5076874;28;20244;-71
2022/05/03 14:35:35;;;;;;;3.77;2.83;;;;;;;;;;5075704;28;20222;-73
2022/05/03 14:38:03;;;;;;;4.70;3.10;;;;;;;;;;5074795;28;20686;-72
2022/05/03 14:40:31;;;;;;;3.03;2.83;;;;;;;;;;5077396;28;20222;-72
2022/05/03 14:43:00;;;;;;;3.57;2.70;;;;;;;;;;5068581;28;20652;-72
2022/05/03 14:45:28;;;;;;;4.20;2.67;;;;;;;;;;5071807;28;20261;-73
2022/05/03 14:47:58;;;;;;;2.97;2.63;;;;;;;;;;5073890;28;20293;-71
2022/05/03 14:50:28;;;;;;;2.80;2.60;;;;;;;;;;5074577;28;20234;-72
2022/05/03 14:52:58;;;;;;;3.00;2.70;;;;;;;;;;5073473;28;20245;-73
2022/05/03 14:55:26;;;;;;;2.40;2.20;;;;;;;;;;5076872;28;20763;-73
2022/05/03 15:03:25;;;;;;;2.97;2.40;;;;;;;;;;5070665;28;20232;-71
2022/05/03 15:05:55;;;;;;;2.93;2.63;;;;;;;;;;5073536;28;20309;-72
2022/05/03 15:08:23;;;;;;;5.17;3.03;;;;;;;;;;5066694;28;20622;-72
2022/05/03 15:10:51;;;;;;;2.20;2.10;;;;;;;;;;5076968;28;20892;-72
2022/05/03 15:13:19;;;;;;;4.63;2.83;;;;;;;;;;5073674;28;20226;-73
2022/05/03 15:15:47;;;;;;;4.00;3.00;;;;;;;;;;5072940;28;20256;-72
2022/05/03 15:18:15;;;;;;;2.87;2.57;;;;;;;;;;5072562;28;20295;-72
2022/05/03 15:20:45;;;;;;;2.73;2.40;;;;;;;;;;5073725;28;20218;-72
2022/05/03 15:26:00;;;;;;;2.80;2.50;;;;;;;;;;5070802;28;20306;-72
2022/05/03 15:28:29;;;;;;;6.73;2.70;;;;;;;;;;5065634;28;20199;-72
2022/05/03 15:30:58;;;;;;;3.00;2.80;;;;;;;;;;5072238;28;20198;-73
2022/05/03 15:33:26;;;;;;;2.97;2.67;;;;;;;;;;5075618;28;20285;-73
2022/05/03 15:35:54;;;;;;;5.83;3.30;;;;;;;;;;5077412;28;20244;-73
2022/05/03 15:38:24;;;;;;;3.73;3.43;;;;;;;;;;5075814;28;20201;-72
2022/05/03 15:40:52;;;;;;;2.93;2.67;;;;;;;;;;5073098;28;20677;-72
2022/05/03 15:43:20;;;;;;;3.27;3.00;;;;;;;;;;5073828;28;20229;-70
2022/05/03 15:45:48;;;;;;;2.70;2.50;;;;;;;;;;5073766;28;20218;-71
2022/05/03 15:48:17;;;;;;;2.43;2.27;;;;;;;;;;5072669;28;20213;-72
2022/05/03 15:50:45;;;;;;;4.33;2.60;;;;;;;;;;5075792;28;20629;-72
2022/05/03 15:53:13;;;;;;;2.47;2.27;;;;;;;;;;5072853;28;20230;-71